Freyburg, Texas
Current Conditions -  °F | °C
As of 3:30 PM on Wednesday 26 Nov 2014 (Local Time) from K3T5 Reporting Station
Clear Clear  
Wind Chill: 72°   Ceiling: Unl
Heat Index: 72°   Visibility: 10mi
Dew Point: 38°   Wind: 9mph
Humidity: 29%   Direction: 210°SSW
Pressure: 30.17"   Gusts: NA
Location:  29.7125°N, 96.9231°W
Report Text: K3T5 262130Z AUTO 21008KT 10SM CLR 22/04 A3017 RMK AO2 T02230036
Loading
Personal Weather Stations






























Interactive Weather Map New forecast layout! Learn more

10-Day Weather Forecast

Advertisements
Track Severe Weather on mobile